Time;durP1;ratioP1;P1;durP2;ratioP2;P2;SDS_P1;SDS_P2;PMS_P1;PMS_P2;Temp;Humidity;BMP_temperature;BMP_pressure;BME280_temperature;BME280_humidity;BME280_pressure;Samples;Min_cycle;Max_cycle;Signal;HPM_P1;HPM_P2
2023/07/20 00:01:22;;;;;;;10.63;10.13;;;21.60;93.80;;;;;;4884349;29;20459;-84
2023/07/20 00:03:54;;;;;;;10.57;10.10;;;21.60;93.30;;;;;;4882736;29;20498;-84
2023/07/20 00:06:24;;;;;;;11.23;10.93;;;21.60;93.40;;;;;;4885172;29;20469;-83
2023/07/20 00:08:53;;;;;;;10.43;10.07;;;21.50;92.70;;;;;;4884497;29;20559;-83
2023/07/20 00:11:21;;;;;;;11.00;10.33;;;21.50;92.60;;;;;;4885534;29;20454;-83
2023/07/20 00:13:51;;;;;;;10.83;10.40;;;21.50;92.60;;;;;;4884831;29;20480;-83
2023/07/20 00:16:19;;;;;;;10.50;10.07;;;21.40;91.90;;;;;;4884745;29;20539;-85
2023/07/20 00:18:48;;;;;;;9.83;9.53;;;21.50;99.10;;;;;;4888048;29;21011;-83
2023/07/20 00:21:16;;;;;;;10.13;9.83;;;21.40;90.20;;;;;;4880875;29;20554;-83
2023/07/20 00:23:44;;;;;;;9.90;9.60;;;21.40;89.20;;;;;;4886408;29;20467;-86
2023/07/20 00:26:13;;;;;;;10.30;9.50;;;21.40;89.00;;;;;;4880116;29;20464;-84
2023/07/20 00:28:41;;;;;;;10.00;9.60;;;21.40;87.00;;;;;;4880937;29;20482;-85
2023/07/20 00:31:11;;;;;;;10.77;9.83;;;21.40;86.40;;;;;;4885631;29;20466;-84
2023/07/20 00:33:39;;;;;;;10.10;9.70;;;21.30;86.00;;;;;;4885205;29;20466;-85
2023/07/20 00:36:07;;;;;;;9.80;9.50;;;21.30;85.40;;;;;;4883673;29;20524;-83
2023/07/20 00:38:36;;;;;;;10.30;9.90;;;21.30;84.20;;;;;;4884137;29;20502;-85
2023/07/20 00:41:04;;;;;;;10.10;9.70;;;21.20;83.00;;;;;;4884543;29;20458;-82
2023/07/20 00:43:32;;;;;;;10.13;9.73;;;21.20;83.20;;;;;;4885411;29;20842;-81
2023/07/20 00:46:02;;;;;;;10.40;10.00;;;21.10;81.70;;;;;;4882130;29;20467;-82
2023/07/20 00:48:32;;;;;;;10.00;9.63;;;21.20;82.50;;;;;;4885220;29;20471;-83
2023/07/20 00:51:02;;;;;;;10.53;9.77;;;21.10;83.40;;;;;;4886319;29;20471;-81
2023/07/20 00:53:31;;;;;;;9.73;9.43;;;21.10;82.50;;;;;;4884127;29;20523;-84
2023/07/20 00:55:59;;;;;;;10.07;9.77;;;21.10;82.40;;;;;;4885727;29;20845;-84
2023/07/20 00:58:28;;;;;;;10.20;9.90;;;21.00;82.20;;;;;;4883997;29;20491;-83
2023/07/20 01:00:56;;;;;;;11.03;10.00;;;21.10;83.00;;;;;;4879870;29;20562;-81
2023/07/20 01:03:24;;;;;;;10.07;9.67;;;21.00;81.90;;;;;;4885663;29;20569;-80
2023/07/20 01:06:01;;;;;;;9.87;9.57;;;21.00;80.50;;;;;;4884895;29;20467;-85
2023/07/20 01:08:36;;;;;;;10.10;9.70;;;20.90;81.40;;;;;;4882661;29;20534;-84
2023/07/20 01:11:13;;;;;;;10.20;9.63;;;20.90;79.60;;;;;;4880833;29;20477;-81
2023/07/20 01:13:43;;;;;;;9.90;9.50;;;20.90;79.30;;;;;;4880494;29;20447;-80
2023/07/20 01:16:12;;;;;;;10.27;9.70;;;20.90;80.50;;;;;;4881628;29;20459;-85
2023/07/20 01:18:40;;;;;;;9.77;9.47;;;20.90;79.70;;;;;;4884680;29;20487;-83
2023/07/20 01:21:19;;;;;;;10.30;9.80;;;20.80;78.60;;;;;;4881624;29;20526;-81
2023/07/20 01:24:26;;;;;;;10.20;9.70;;;20.80;78.40;;;;;;4883802;29;20550;-81
2023/07/20 01:27:20;;;;;;;10.07;9.67;;;20.70;77.90;;;;;;4878315;29;20472;-81
2023/07/20 01:30:04;;;;;;;10.27;9.80;;;20.70;78.10;;;;;;4880546;29;20967;-83
2023/07/20 01:32:35;;;;;;;10.10;9.60;;;20.70;76.30;;;;;;4883816;29;20465;-81
2023/07/20 01:35:07;;;;;;;9.90;9.50;;;20.70;76.60;;;;;;4881886;29;20483;-81
2023/07/20 01:37:35;;;;;;;9.77;9.47;;;20.70;76.50;;;;;;4881657;29;20498;-83
2023/07/20 01:40:05;;;;;;;9.40;9.10;;;20.70;76.20;;;;;;4880300;29;20896;-84
2023/07/20 01:42:33;;;;;;;9.87;9.47;;;20.70;76.30;;;;;;4882642;29;20549;-81
2023/07/20 01:45:01;;;;;;;9.50;9.20;;;20.60;75.50;;;;;;4885237;29;20494;-80
2023/07/20 01:47:29;;;;;;;9.60;9.30;;;20.60;76.30;;;;;;4884102;29;20512;-85
2023/07/20 01:49:59;;;;;;;9.33;9.03;;;20.60;76.10;;;;;;4885269;29;20469;-84
2023/07/20 01:52:27;;;;;;;10.17;9.77;;;20.50;76.70;;;;;;4880796;29;20508;-86
2023/07/20 01:54:57;;;;;;;10.23;9.73;;;20.60;78.50;;;;;;4882693;29;21036;-82
2023/07/20 01:57:25;;;;;;;10.30;9.70;;;20.50;76.50;;;;;;4883376;29;20477;-83
2023/07/20 01:59:54;;;;;;;10.20;9.70;;;20.50;75.60;;;;;;4879256;29;20566;-84
2023/07/20 02:02:24;;;;;;;9.93;9.53;;;20.50;76.10;;;;;;4883465;29;20455;-84
2023/07/20 02:04:52;;;;;;;10.10;9.70;;;20.40;75.30;;;;;;4881033;29;21001;-82
2023/07/20 02:07:22;;;;;;;10.37;10.07;;;20.40;75.30;;;;;;4878266;29;20497;-82
2023/07/20 02:09:50;;;;;;;10.30;9.90;;;20.30;92.00;;;;;;4884648;29;20915;-82
2023/07/20 02:12:18;;;;;;;9.67;9.37;;;20.30;75.90;;;;;;4883709;29;20510;-81
2023/07/20 02:14:47;;;;;;;10.20;9.57;;;20.30;76.70;;;;;;4889187;29;20696;-84
2023/07/20 02:17:15;;;;;;;9.90;9.50;;;20.30;76.30;;;;;;4884329;29;20534;-84
2023/07/20 02:19:43;;;;;;;10.13;9.73;;;20.20;75.60;;;;;;4888612;29;20486;-84
2023/07/20 02:22:12;;;;;;;10.33;9.93;;;20.20;74.50;;;;;;4887107;29;20459;-81
2023/07/20 02:24:42;;;;;;;9.70;9.37;;;20.20;75.60;;;;;;4888597;29;20494;-83
2023/07/20 02:27:13;;;;;;;10.03;9.67;;;20.20;76.60;;;;;;4887645;29;20465;-83
2023/07/20 02:29:42;;;;;;;10.50;10.03;;;20.20;92.10;;;;;;4886282;29;20455;-83
2023/07/20 02:32:10;;;;;;;9.83;9.43;;;20.20;76.90;;;;;;4887599;29;20491;-83
2023/07/20 02:34:39;;;;;;;9.77;9.47;;;20.20;77.30;;;;;;4885815;29;20492;-83
2023/07/20 02:37:08;;;;;;;9.60;9.30;;;20.10;77.40;;;;;;4885630;29;21033;-85
2023/07/20 02:39:40;;;;;;;10.17;9.67;;;20.10;76.30;;;;;;4886922;29;20497;-83
2023/07/20 02:42:09;;;;;;;10.03;9.73;;;20.00;75.80;;;;;;4890829;29;20471;-80
2023/07/20 02:44:37;;;;;;;10.10;9.57;;;19.90;76.00;;;;;;4888749;29;20466;-83
2023/07/20 02:47:06;;;;;;;10.37;9.97;;;19.90;77.00;;;;;;4887846;29;20450;-84
2023/07/20 02:49:34;;;;;;;9.90;9.50;;;19.90;77.30;;;;;;4888936;29;21043;-85
2023/07/20 02:52:02;;;;;;;9.60;9.30;;;19.90;78.50;;;;;;4887999;29;20585;-83
2023/07/20 02:54:31;;;;;;;9.43;9.23;;;19.90;79.20;;;;;;4888444;29;20479;-84
2023/07/20 02:57:01;;;;;;;9.97;9.60;;;19.90;80.70;;;;;;4874148;29;20476;-83
2023/07/20 02:59:29;;;;;;;10.27;9.87;;;19.90;80.00;;;;;;4888681;29;20488;-85
2023/07/20 03:01:58;;;;;;;10.60;10.10;;;19.90;80.00;;;;;;4886891;29;20459;-84
2023/07/20 03:04:27;;;;;;;10.17;9.87;;;19.90;79.80;;;;;;4885194;29;20499;-85
2023/07/20 03:06:55;;;;;;;10.30;10.00;;;19.80;81.00;;;;;;4886774;29;20462;-85
2023/07/20 03:09:24;;;;;;;10.87;10.40;;;19.80;81.20;;;;;;4885840;29;21001;-84
2023/07/20 03:11:52;;;;;;;10.50;10.20;;;19.70;82.30;;;;;;4884305;29;20464;-84
2023/07/20 03:14:23;;;;;;;10.07;9.77;;;19.70;80.50;;;;;;4886140;29;20498;-84
2023/07/20 03:16:51;;;;;;;10.70;10.37;;;19.70;82.50;;;;;;4882445;29;20474;-84
2023/07/20 03:19:20;;;;;;;10.90;10.50;;;19.60;83.40;;;;;;4888102;29;20835;-84
2023/07/20 03:21:48;;;;;;;10.40;9.90;;;19.60;85.00;;;;;;4879627;29;20493;-85
2023/07/20 03:24:18;;;;;;;11.07;10.57;;;19.60;84.70;;;;;;4883795;29;20463;-83
2023/07/20 03:26:46;;;;;;;10.50;10.20;;;19.50;86.90;;;;;;4886889;29;20463;-83
2023/07/20 03:29:16;;;;;;;10.67;10.20;;;19.50;86.10;;;;;;4887596;29;21403;-83
2023/07/20 03:31:45;;;;;;;10.33;9.93;;;19.50;87.80;;;;;;4885558;29;20463;-82
2023/07/20 03:34:13;;;;;;;10.60;10.10;;;19.50;87.60;;;;;;4881722;29;20477;-84
2023/07/20 03:36:43;;;;;;;10.60;10.20;;;19.50;88.70;;;;;;4883739;29;20576;-82
2023/07/20 03:39:11;;;;;;;10.13;9.93;;;19.40;89.10;;;;;;4883657;29;20495;-82
2023/07/20 03:41:39;;;;;;;10.20;9.90;;;19.40;90.10;;;;;;4884089;29;21094;-85
2023/07/20 03:44:08;;;;;;;10.73;10.33;;;19.40;90.90;;;;;;4882405;29;20504;-84
2023/07/20 03:46:37;;;;;;;11.00;10.50;;;19.40;90.90;;;;;;4881289;29;20474;-83
2023/07/20 03:49:08;;;;;;;10.60;10.27;;;19.40;91.40;;;;;;4885524;29;20507;-84
2023/07/20 03:51:37;;;;;;;11.00;10.60;;;19.30;90.40;;;;;;4886764;29;21063;-83
2023/07/20 03:54:05;;;;;;;10.63;10.33;;;19.30;90.20;;;;;;4885400;29;20517;-84
2023/07/20 03:56:35;;;;;;;10.70;10.20;;;19.40;91.10;;;;;;4882990;29;20466;-83
2023/07/20 03:59:03;;;;;;;10.90;10.60;;;19.40;90.90;;;;;;4885668;29;20555;-83
2023/07/20 04:01:36;;;;;;;10.90;10.40;;;19.40;91.70;;;;;;4882982;29;20468;-83
2023/07/20 04:04:08;;;;;;;10.30;10.00;;;19.50;92.00;;;;;;4882918;29;20579;-86
2023/07/20 04:06:37;;;;;;;9.90;9.60;;;19.40;91.40;;;;;;4885819;29;20566;-86
2023/07/20 04:09:05;;;;;;;10.40;10.00;;;19.40;92.10;;;;;;4883440;29;20483;-84
2023/07/20 04:11:34;;;;;;;11.43;10.90;;;19.10;91.30;;;;;;4878439;29;20222;-84
2023/07/20 04:14:02;;;;;;;10.47;10.17;;;19.30;92.80;;;;;;4884268;29;20461;-83
2023/07/20 04:16:30;;;;;;;10.90;10.40;;;19.40;93.30;;;;;;4886781;29;20467;-83
2023/07/20 04:18:59;;;;;;;10.47;10.17;;;19.40;93.20;;;;;;4885499;29;20484;-84
2023/07/20 04:21:29;;;;;;;11.27;10.67;;;19.50;93.80;;;;;;4886161;29;20460;-84
2023/07/20 04:23:57;;;;;;;11.10;10.63;;;19.50;93.50;;;;;;4886845;29;20498;-84
2023/07/20 04:26:25;;;;;;;10.73;10.30;;;19.50;94.40;;;;;;4882657;29;20468;-85
2023/07/20 04:28:53;;;;;;;11.30;10.60;;;19.50;94.30;;;;;;4878702;29;20589;-73
2023/07/20 04:31:22;;;;;;;10.80;10.30;;;19.60;94.60;;;;;;4878771;29;20506;-74
2023/07/20 04:33:50;;;;;;;11.67;11.27;;;19.50;94.80;;;;;;4880766;29;20451;-77
2023/07/20 04:36:19;;;;;;;11.27;10.87;;;19.40;95.00;;;;;;4882367;29;20519;-77
2023/07/20 04:38:49;;;;;;;10.50;10.20;;;19.50;95.70;;;;;;4882572;29;21005;-78
2023/07/20 04:41:17;;;;;;;11.10;10.70;;;19.50;96.90;;;;;;4882448;29;20928;-77
2023/07/20 04:43:46;;;;;;;12.37;11.70;;;19.50;96.50;;;;;;4881108;29;20474;-78
2023/07/20 04:46:14;;;;;;;11.03;10.57;;;19.50;97.00;;;;;;4882230;29;20455;-77
2023/07/20 04:48:42;;;;;;;10.47;10.07;;;19.50;97.20;;;;;;4880643;29;20519;-77
2023/07/20 04:51:11;;;;;;;10.97;10.57;;;19.70;97.80;;;;;;4879233;29;20472;-77
2023/07/20 04:53:39;;;;;;;10.70;10.20;;;19.70;97.40;;;;;;4882191;29;21064;-74
2023/07/20 04:56:10;;;;;;;11.43;11.00;;;19.60;98.30;;;;;;4878108;29;20485;-75
2023/07/20 04:58:38;;;;;;;11.40;10.80;;;19.60;99.90;;;;;;4879618;29;20490;-74
2023/07/20 05:01:06;;;;;;;13.33;12.73;;;19.60;99.90;;;;;;4878368;29;20844;-75
2023/07/20 05:03:34;;;;;;;11.70;11.20;;;19.70;99.90;;;;;;4884512;29;20466;-76
2023/07/20 05:06:03;;;;;;;12.20;11.80;;;19.70;99.90;;;;;;4879162;29;20466;-76
2023/07/20 05:08:31;;;;;;;12.03;11.63;;;19.70;99.90;;;;;;4877570;29;20546;-78
2023/07/20 05:11:00;;;;;;;12.07;11.55;;;19.70;99.90;;;;;;4877969;29;20426;-76
2023/07/20 05:13:30;;;;;;;12.43;12.03;;;19.80;99.90;;;;;;4874883;29;20304;-81
2023/07/20 05:15:58;;;;;;;12.60;11.83;;;19.80;99.90;;;;;;4873034;29;20515;-82
2023/07/20 05:18:26;;;;;;;12.30;11.80;;;19.90;99.90;;;;;;4876778;29;21623;-82
2023/07/20 05:20:55;;;;;;;11.90;11.50;;;19.90;99.90;;;;;;4862998;29;20478;-81
2023/07/20 05:23:25;;;;;;;12.43;11.90;;;20.00;99.90;;;;;;4881793;29;20511;-81
2023/07/20 05:25:56;;;;;;;11.77;11.37;;;20.00;99.90;;;;;;4879583;29;20464;-80
2023/07/20 05:28:24;;;;;;;12.37;11.73;;;20.00;99.90;;;;;;4879890;29;20547;-78
2023/07/20 05:30:54;;;;;;;12.67;11.97;;;20.00;99.90;;;;;;4886278;29;20516;-80
2023/07/20 05:33:22;;;;;;;13.13;12.27;;;20.10;99.90;;;;;;4883726;29;20460;-82
2023/07/20 05:35:51;;;;;;;12.33;11.70;;;20.10;99.90;;;;;;4885086;29;20498;-78
2023/07/20 05:38:19;;;;;;;11.80;11.30;;;20.10;99.90;;;;;;4879859;29;20465;-81
2023/07/20 05:40:47;;;;;;;11.80;11.30;;;20.10;99.90;;;;;;4879764;29;20218;-79
2023/07/20 05:43:16;;;;;;;12.00;11.33;;;20.20;99.90;;;;;;4884895;29;20545;-82
2023/07/20 05:45:44;;;;;;;12.57;11.70;;;20.30;99.90;;;;;;4886174;29;20463;-82
2023/07/20 05:48:14;;;;;;;12.00;11.40;;;20.30;99.90;;;;;;4869032;29;20486;-81
2023/07/20 05:50:44;;;;;;;12.07;11.67;;;20.30;99.90;;;;;;4881335;29;20526;-83
2023/07/20 05:53:12;;;;;;;14.23;13.10;;;20.30;99.90;;;;;;4886428;29;20473;-83
2023/07/20 05:55:40;;;;;;;12.50;11.80;;;20.40;99.90;;;;;;4882623;29;20750;-83
2023/07/20 05:58:09;;;;;;;12.57;11.87;;;20.40;99.90;;;;;;4879737;29;20486;-81
2023/07/20 06:00:37;;;;;;;13.13;12.37;;;20.40;99.90;;;;;;4885731;29;22110;-84
2023/07/20 06:03:05;;;;;;;12.60;12.00;;;20.50;99.90;;;;;;4883023;29;20823;-82
2023/07/20 06:05:35;;;;;;;12.00;11.50;;;20.40;99.90;;;;;;4881532;29;20207;-85
2023/07/20 06:08:05;;;;;;;13.00;12.30;;;20.50;99.90;;;;;;4880945;29;20494;-86
2023/07/20 06:10:35;;;;;;;13.03;12.23;;;20.60;99.90;;;;;;4874769;29;21048;-85
2023/07/20 06:13:10;;;;;;;12.47;11.87;;;20.60;99.90;;;;;;4881676;29;20498;-85
2023/07/20 06:15:41;;;;;;;11.97;11.50;;;20.60;99.90;;;;;;4884984;29;20557;-84
2023/07/20 06:18:09;;;;;;;12.40;11.67;;;20.60;99.90;;;;;;4885401;29;20478;-84
2023/07/20 06:20:39;;;;;;;12.10;11.60;;;20.50;99.90;;;;;;4886292;29;20543;-86
2023/07/20 06:23:07;;;;;;;13.60;12.57;;;20.60;99.90;;;;;;4883783;29;21184;-86
2023/07/20 06:25:35;;;;;;;13.00;12.10;;;20.60;99.90;;;;;;4880850;29;20467;-84
2023/07/20 06:28:05;;;;;;;13.33;12.70;;;20.60;99.90;;;;;;4884611;29;20488;-83
2023/07/20 06:30:35;;;;;;;12.53;11.83;;;20.60;99.90;;;;;;4886258;29;20456;-83
2023/07/20 06:33:03;;;;;;;12.50;11.80;;;20.60;99.90;;;;;;4882079;29;20488;-85
2023/07/20 06:35:32;;;;;;;12.30;11.90;;;20.70;99.90;;;;;;4884796;29;21007;-86
2023/07/20 06:38:03;;;;;;;12.47;11.87;;;20.70;99.90;;;;;;4885838;29;20471;-85
2023/07/20 06:40:35;;;;;;;12.57;11.93;;;20.70;99.90;;;;;;4881142;29;20546;-84
2023/07/20 06:43:03;;;;;;;12.70;12.00;;;20.60;99.90;;;;;;4883055;29;20551;-84
2023/07/20 06:45:34;;;;;;;12.10;11.70;;;20.70;99.90;;;;;;4884464;29;20471;-85
2023/07/20 06:48:03;;;;;;;12.27;11.77;;;20.70;99.90;;;;;;4882500;29;21039;-84
2023/07/20 06:50:36;;;;;;;13.57;12.87;;;20.70;99.90;;;;;;4885851;29;20968;-85
2023/07/20 06:53:06;;;;;;;12.23;11.73;;;20.80;99.90;;;;;;4889851;29;20477;-84
2023/07/20 06:55:38;;;;;;;12.60;12.00;;;20.80;99.90;;;;;;4882710;29;20628;-84
2023/07/20 06:58:09;;;;;;;13.13;12.40;;;21.00;99.90;;;;;;4884854;29;20994;-84
2023/07/20 07:00:38;;;;;;;12.63;12.10;;;21.00;99.90;;;;;;4886744;29;21027;-84
2023/07/20 07:03:07;;;;;;;13.07;12.47;;;21.10;99.90;;;;;;4887323;29;20486;-86
2023/07/20 07:05:37;;;;;;;12.30;11.90;;;21.20;99.90;;;;;;4888101;29;20470;-85
2023/07/20 07:08:08;;;;;;;13.13;12.63;;;21.20;99.90;;;;;;4888168;29;20483;-85
2023/07/20 07:10:37;;;;;;;12.67;12.17;;;21.20;99.90;;;;;;4867344;29;20842;-84
2023/07/20 07:13:06;;;;;;;13.60;12.80;;;21.30;99.90;;;;;;4881229;29;20505;-84
2023/07/20 07:15:38;;;;;;;13.23;12.63;;;21.30;99.90;;;;;;4886519;29;20501;-85
2023/07/20 07:18:06;;;;;;;12.67;12.07;;;21.40;99.90;;;;;;4885476;29;20491;-84
2023/07/20 07:20:34;;;;;;;12.40;12.00;;;21.50;99.90;;;;;;4883414;29;20482;-85
2023/07/20 07:23:03;;;;;;;12.30;11.90;;;21.60;99.90;;;;;;4889732;29;20834;-84
2023/07/20 07:25:32;;;;;;;12.43;12.03;;;21.70;99.90;;;;;;4885411;29;20466;-85
2023/07/20 07:28:01;;;;;;;14.00;13.30;;;21.70;99.90;;;;;;4886792;29;20494;-85
2023/07/20 07:30:29;;;;;;;12.77;12.33;;;21.80;99.90;;;;;;4886489;29;20554;-85
2023/07/20 07:33:01;;;;;;;12.73;12.30;;;21.80;99.90;;;;;;4885018;29;20462;-84
2023/07/20 07:35:36;;;;;;;12.80;12.40;;;21.80;99.90;;;;;;4888829;29;20461;-85
2023/07/20 07:38:05;;;;;;;12.90;12.50;;;21.80;99.90;;;;;;4886751;29;20714;-84
2023/07/20 07:40:55;;;;;;;13.67;12.70;;;21.90;99.90;;;;;;4885421;29;20551;-84
2023/07/20 07:43:25;;;;;;;13.33;12.63;;;21.90;99.90;;;;;;4888085;29;20494;-85
2023/07/20 07:45:55;;;;;;;13.73;13.13;;;22.00;99.90;;;;;;4889531;29;20554;-84
2023/07/20 07:48:25;;;;;;;13.43;12.93;;;22.00;99.90;;;;;;4882763;29;20973;-85
2023/07/20 07:50:54;;;;;;;13.40;12.90;;;22.00;99.90;;;;;;4887047;29;21002;-85
2023/07/20 07:53:25;;;;;;;13.60;13.10;;;22.00;99.90;;;;;;4887056;29;20516;-84
2023/07/20 07:55:55;;;;;;;14.60;13.77;;;22.00;99.90;;;;;;4868833;29;20497;-85
2023/07/20 07:58:24;;;;;;;13.03;12.63;;;22.10;99.90;;;;;;4888629;29;20902;-86
2023/07/20 08:00:52;;;;;;;13.27;12.73;;;22.10;99.90;;;;;;4884354;29;20582;-84
2023/07/20 08:03:21;;;;;;;13.63;12.90;;;22.10;99.90;;;;;;4882022;29;21045;-86
2023/07/20 08:05:50;;;;;;;13.70;13.20;;;22.10;99.90;;;;;;4885596;29;20466;-84
2023/07/20 08:08:19;;;;;;;13.27;12.77;;;22.10;99.90;;;;;;4888851;29;20518;-85
2023/07/20 08:10:47;;;;;;;13.37;12.87;;;22.10;99.90;;;;;;4883321;29;20473;-84
2023/07/20 08:13:17;;;;;;;13.53;13.03;;;22.10;99.90;;;;;;4889460;29;20466;-84
2023/07/20 08:15:51;;;;;;;12.80;12.40;;;22.20;99.90;;;;;;4882813;29;20483;-85
2023/07/20 08:18:19;;;;;;;13.10;12.60;;;22.20;99.90;;;;;;4885760;29;20550;-85
2023/07/20 08:20:49;;;;;;;14.10;13.60;;;22.20;99.90;;;;;;4887785;29;20470;-85
2023/07/20 08:23:17;;;;;;;14.33;13.63;;;22.30;99.90;;;;;;4888074;29;20466;-85
2023/07/20 08:25:45;;;;;;;13.00;12.40;;;22.30;99.90;;;;;;4880440;29;20587;-85
2023/07/20 08:28:15;;;;;;;13.33;12.77;;;22.30;99.90;;;;;;4887057;29;20498;-85
2023/07/20 08:30:47;;;;;;;13.37;12.80;;;22.40;99.90;;;;;;4886296;29;20454;-86
2023/07/20 08:33:18;;;;;;;13.33;12.80;;;22.40;99.90;;;;;;4884713;29;20487;-84
2023/07/20 08:35:47;;;;;;;13.30;12.90;;;22.40;99.90;;;;;;4884431;29;20460;-84
2023/07/20 08:38:15;;;;;;;13.07;12.60;;;22.30;99.90;;;;;;4887081;29;20482;-85
2023/07/20 08:40:45;;;;;;;13.37;12.87;;;22.30;99.90;;;;;;4883834;29;20464;-86
2023/07/20 08:43:18;;;;;;;13.53;13.00;;;22.40;99.90;;;;;;4889616;29;20698;-85
2023/07/20 08:45:49;;;;;;;13.50;12.80;;;22.40;99.90;;;;;;4884892;29;20462;-85
2023/07/20 08:48:19;;;;;;;13.07;12.67;;;22.50;99.90;;;;;;4885921;29;21182;-85
2023/07/20 08:50:50;;;;;;;12.60;12.20;;;22.50;99.90;;;;;;4886105;29;20554;-85
2023/07/20 08:53:18;;;;;;;13.50;12.90;;;22.40;99.90;;;;;;4883858;29;20474;-86
2023/07/20 08:55:49;;;;;;;13.07;12.57;;;22.50;99.90;;;;;;4885668;29;20459;-85
2023/07/20 08:58:19;;;;;;;13.13;12.60;;;22.50;99.90;;;;;;4884678;29;21013;-85
2023/07/20 09:00:51;;;;;;;13.70;13.00;;;22.40;99.90;;;;;;4887706;29;20473;-85
2023/07/20 09:03:20;;;;;;;12.77;12.37;;;22.50;99.90;;;;;;4886026;29;20854;-85
2023/07/20 09:05:49;;;;;;;12.70;12.20;;;22.40;99.90;;;;;;4886458;29;20519;-87
2023/07/20 09:08:18;;;;;;;12.60;12.10;;;22.40;99.60;;;;;;4884907;29;20522;-84
2023/07/20 09:10:46;;;;;;;12.60;12.20;;;22.40;99.90;;;;;;4888458;29;20491;-85
2023/07/20 09:13:17;;;;;;;12.60;12.20;;;22.40;99.40;;;;;;4883447;29;20458;-85
2023/07/20 09:15:55;;;;;;;12.77;12.27;;;22.50;99.00;;;;;;4873830;29;20538;-86
2023/07/20 09:18:28;;;;;;;12.80;12.30;;;22.50;99.30;;;;;;4885038;29;20501;-84
2023/07/20 09:21:01;;;;;;;12.07;11.67;;;22.60;99.90;;;;;;4883804;29;20461;-84
2023/07/20 09:23:33;;;;;;;12.20;11.70;;;22.60;98.90;;;;;;4886457;29;20489;-84
2023/07/20 09:26:10;;;;;;;11.73;11.23;;;22.60;99.30;;;;;;4889035;29;20455;-85
2023/07/20 09:28:43;;;;;;;11.30;11.03;;;22.60;97.70;;;;;;4885058;29;20483;-85
2023/07/20 09:31:18;;;;;;;11.80;11.40;;;22.60;98.90;;;;;;4887054;29;20466;-85
2023/07/20 09:33:48;;;;;;;12.00;11.60;;;22.60;98.00;;;;;;4885253;29;20466;-85
2023/07/20 09:36:19;;;;;;;12.00;11.50;;;22.60;96.50;;;;;;4888620;29;20463;-84
2023/07/20 09:39:08;;;;;;;11.80;11.50;;;22.60;95.60;;;;;;4885774;29;20502;-85
2023/07/20 09:41:43;;;;;;;12.10;11.80;;;22.60;96.00;;;;;;4887478;29;20561;-85
2023/07/20 09:44:20;;;;;;;12.80;12.30;;;22.70;96.00;;;;;;4887507;29;20475;-84
2023/07/20 09:46:55;;;;;;;11.93;11.40;;;22.80;97.20;;;;;;4882382;29;20547;-85
2023/07/20 09:49:27;;;;;;;11.90;11.60;;;22.90;97.70;;;;;;4884005;29;20520;-86
2023/07/20 09:52:00;;;;;;;11.47;11.10;;;23.00;97.60;;;;;;4887063;29;20561;-85
2023/07/20 09:54:33;;;;;;;11.93;11.63;;;23.00;96.00;;;;;;4885504;29;20991;-84
2023/07/20 09:57:04;;;;;;;11.60;11.10;;;23.10;97.00;;;;;;4881196;29;20511;-86
2023/07/20 09:59:32;;;;;;;11.20;10.90;;;23.10;94.50;;;;;;4884905;29;20484;-86
2023/07/20 10:02:06;;;;;;;11.53;11.23;;;23.10;93.10;;;;;;4887183;29;21030;-85
2023/07/20 10:04:37;;;;;;;10.60;10.40;;;23.10;94.50;;;;;;4883466;29;20460;-84
2023/07/20 10:07:12;;;;;;;11.70;11.20;;;23.20;95.00;;;;;;4886175;29;20566;-84
2023/07/20 10:09:42;;;;;;;11.17;10.77;;;23.20;93.70;;;;;;4885585;29;20505;-87
2023/07/20 10:12:13;;;;;;;10.97;10.67;;;23.20;94.40;;;;;;4881620;29;20459;-84
2023/07/20 10:14:55;;;;;;;11.10;10.80;;;23.20;94.10;;;;;;4881027;29;20968;-86
2023/07/20 10:17:28;;;;;;;10.70;10.40;;;23.20;95.00;;;;;;4883311;29;20463;-85
2023/07/20 10:20:02;;;;;;;11.37;11.07;;;23.40;97.00;;;;;;4880807;29;20979;-85
2023/07/20 10:22:35;;;;;;;11.23;10.93;;;23.30;95.00;;;;;;4884426;29;20491;-85
2023/07/20 10:25:10;;;;;;;10.40;10.10;;;23.40;95.40;;;;;;4885086;29;20488;-85
2023/07/20 10:27:40;;;;;;;11.63;10.87;;;23.40;93.90;;;;;;4885518;29;20456;-84
2023/07/20 10:30:09;;;;;;;9.90;9.70;;;23.50;94.00;;;;;;4887272;29;20467;-84
2023/07/20 10:32:40;;;;;;;10.40;10.10;;;23.40;92.40;;;;;;4886321;29;21050;-86
2023/07/20 10:35:14;;;;;;;10.37;10.07;;;23.50;92.00;;;;;;4890189;29;20462;-84
2023/07/20 10:37:53;;;;;;;10.73;10.43;;;23.50;92.80;;;;;;4888189;29;20490;-85
2023/07/20 10:40:32;;;;;;;10.87;10.57;;;23.50;91.40;;;;;;4887533;29;20466;-87
2023/07/20 10:43:06;;;;;;;10.27;9.80;;;23.60;89.80;;;;;;4888950;29;20752;-84
2023/07/20 10:45:42;;;;;;;10.63;10.23;;;23.50;88.50;;;;;;4887224;29;20462;-83
2023/07/20 10:48:19;;;;;;;10.30;10.00;;;23.60;91.20;;;;;;4885481;29;20482;-85
2023/07/20 10:51:11;;;;;;;10.80;10.30;;;23.70;90.90;;;;;;4886962;29;20462;-84
2023/07/20 10:53:40;;;;;;;10.43;10.03;;;23.70;91.10;;;;;;4888049;29;20465;-85
2023/07/20 10:56:12;;;;;;;10.40;10.20;;;23.70;93.10;;;;;;4890860;29;20913;-85
2023/07/20 10:58:41;;;;;;;10.50;10.20;;;23.80;93.10;;;;;;4886736;29;21078;-86
2023/07/20 11:01:15;;;;;;;10.90;10.60;;;23.90;94.10;;;;;;4889620;29;20555;-85
2023/07/20 11:03:52;;;;;;;11.33;11.03;;;23.90;92.60;;;;;;4882211;29;20495;-85
2023/07/20 11:06:34;;;;;;;10.00;9.80;;;24.00;93.40;;;;;;4887142;29;20469;-84
2023/07/20 11:09:07;;;;;;;9.80;9.40;;;24.00;91.20;;;;;;4887413;29;20573;-85
2023/07/20 11:11:38;;;;;;;10.33;10.03;;;24.00;89.90;;;;;;4889437;29;20551;-85
2023/07/20 11:14:07;;;;;;;9.90;9.60;;;24.00;89.90;;;;;;4890868;29;20690;-84
2023/07/20 11:16:37;;;;;;;10.27;9.83;;;24.00;90.00;;;;;;4888084;29;20449;-84
2023/07/20 11:19:14;;;;;;;10.13;9.47;;;24.00;89.10;;;;;;4885725;29;20482;-84
2023/07/20 11:22:09;;;;;;;9.80;9.50;;;24.10;89.10;;;;;;4888357;29;20455;-84
2023/07/20 11:24:42;;;;;;;9.93;9.73;;;24.10;87.20;;;;;;4889212;29;20478;-84
2023/07/20 11:27:22;;;;;;;9.50;9.17;;;24.00;81.70;;;;;;4886481;29;20503;-82
2023/07/20 11:29:55;;;;;;;9.13;8.90;;;24.00;82.50;;;;;;4888369;29;20462;-84
2023/07/20 11:32:24;;;;;;;9.13;8.57;;;24.00;81.90;;;;;;4888700;29;20462;-84
2023/07/20 11:34:54;;;;;;;9.50;9.20;;;24.00;81.40;;;;;;4889566;29;20444;-85
2023/07/20 11:37:27;;;;;;;9.50;9.30;;;24.00;80.80;;;;;;4887584;29;20540;-85
2023/07/20 11:39:57;;;;;;;9.90;9.70;;;24.10;83.20;;;;;;4886132;29;20470;-84
2023/07/20 11:42:30;;;;;;;10.17;9.87;;;24.20;86.40;;;;;;4887499;29;20531;-86
2023/07/20 11:45:04;;;;;;;10.00;9.80;;;24.30;87.10;;;;;;4888656;29;20989;-85
2023/07/20 11:47:34;;;;;;;10.27;9.97;;;24.30;86.40;;;;;;4887865;29;20466;-85
2023/07/20 11:50:06;;;;;;;9.60;9.40;;;24.40;86.60;;;;;;4885712;29;20475;-84
2023/07/20 11:52:35;;;;;;;9.30;9.10;;;24.40;86.50;;;;;;4883299;29;20575;-85
2023/07/20 11:55:06;;;;;;;9.20;8.90;;;24.40;85.20;;;;;;4889126;29;20439;-86
2023/07/20 11:57:35;;;;;;;9.97;9.67;;;24.30;83.70;;;;;;4892812;29;20449;-85
2023/07/20 12:00:11;;;;;;;10.17;9.77;;;24.40;84.30;;;;;;4885005;29;20546;-83
2023/07/20 12:02:40;;;;;;;9.67;9.33;;;24.40;84.30;;;;;;4867555;29;21218;-86
2023/07/20 12:05:12;;;;;;;9.00;8.70;;;24.50;87.60;;;;;;4879427;29;20459;-85
2023/07/20 12:07:40;;;;;;;10.30;10.00;;;24.50;86.00;;;;;;4884201;29;20558;-86
2023/07/20 12:10:11;;;;;;;10.13;9.73;;;24.50;84.80;;;;;;4871671;29;20811;-84
2023/07/20 12:12:41;;;;;;;9.83;9.53;;;24.50;84.60;;;;;;4866580;29;20486;-85
2023/07/20 12:15:17;;;;;;;9.60;9.20;;;24.50;83.30;;;;;;4879664;29;20615;-87
2023/07/20 12:17:46;;;;;;;8.93;8.73;;;24.50;84.30;;;;;;4866935;29;20486;-86
2023/07/20 12:20:26;;;;;;;9.30;9.00;;;24.50;82.60;;;;;;4881751;29;21164;-86
2023/07/20 12:22:58;;;;;;;9.03;8.83;;;24.50;80.80;;;;;;4884308;29;20467;-84
2023/07/20 12:25:44;;;;;;;10.00;9.70;;;24.40;80.80;;;;;;4887386;29;20466;-84
2023/07/20 12:28:13;;;;;;;10.00;9.50;;;24.40;83.30;;;;;;4885600;29;21030;-85
2023/07/20 12:30:45;;;;;;;10.07;9.67;;;24.50;83.80;;;;;;4882037;29;20459;-84
2023/07/20 12:33:15;;;;;;;10.00;9.70;;;24.50;87.20;;;;;;4887504;29;20449;-87
2023/07/20 12:35:46;;;;;;;10.17;9.87;;;24.60;83.60;;;;;;4885656;29;20458;-84
2023/07/20 12:38:18;;;;;;;10.30;9.93;;;24.70;86.20;;;;;;4882018;29;20925;-84
2023/07/20 12:40:49;;;;;;;10.63;10.23;;;24.70;88.10;;;;;;4888172;29;20458;-84
2023/07/20 12:43:18;;;;;;;10.47;9.97;;;24.80;88.30;;;;;;4885894;29;20509;-86
2023/07/20 12:45:48;;;;;;;10.20;10.00;;;24.80;90.00;;;;;;4883398;29;20455;-86
2023/07/20 12:48:20;;;;;;;10.33;10.13;;;24.80;89.10;;;;;;4883071;29;21020;-86